首页
METAR-TAF:

METAR-TAF

机场 :

扎達爾, 克罗地亚

纬度: 44-06N, 经度: 015-21E, 海拔: 82米

当前天气观测

该预报发布于20分钟前的12:00 UTC
风速6节,风向多变
温度 23°C
湿度 16%
气压 1027 hPa
能见度10公里或以上
1500米以下无云,无积雨云

METAR: LDZD 071200Z VRB06KT CAVOK 23/M04 Q1027 BECMG 27010KT

时间: 14:20 (12:20 UTC)

预报

该预报发布于55分钟前的11:25 UTC
预报有效从07日的 12点(UTC)到 08日的 12点(UTC)
风速6节,风向
能见度10公里或以上
1500米以下无云,无积雨云
成为
从 07日的 12点(UTC)到 07日的 14点(UTC)
风速10节,风向西
成为
从 07日的 17点(UTC)到 07日的 19点(UTC)
风速6节,风向东北
几率 30% :
短暂存在
从 07日的 20点(UTC)到 08日的 03点(UTC)
风速12节,风向东转东北
成为
从 08日的 10点(UTC)到 08日的 12点(UTC)
风速10节,风向西

TAF: LDZD 071125Z 0712/0812 08006KT CAVOK TX21/0713Z TN06/0805Z BECMG 0712/0714 27010KT BECMG 0717/0719 04006KT PROB30 TEMPO 0720/0803 06012KT BECMG 0810/0812 26010KT

超过4000个机场的气象观测和天气预报(METAR&TAF报告)。

可查询的气象台以黄色和红色小点在地图上表示。

将鼠标移到小点上方,可查看气象台名称。

然后点击查看天气观测和预报。

如需切换地图:点击带黑十字的绿色按钮放大地图;点击带横线的绿色按钮缩小地图;或者点击绿色箭头查看邻近地区的地图。


METAR-TAF: